• Join FlightAware (Why Join?)
  • Login
  • US Flag 
02:44AM EDT


 

Airport Tracker/Info


-or-


 

Live Flight TrackerFlight Track Log ✈ UAL1553 ✈ 26-Jun-2013 ✈ KIAH - CYVR

Flight Track Log - Related Links

Times and Time Zones

All times are in EDT time to prevent confusion due to time zone crossing. See the UAL1553 flight status page for this flight to view local times or setup timezone preferences in your user account.

Time Position Orientation Groundspeed Altitude Reporting Facility
EDT Latitude Longitude Course Direction KTS MPH feet Rate Location/Type
11:32PM 29.9617 -95.3436 337° Northwest 163 188 900  Level Houston Center
11:33PM 29.9275 -95.3597 202° Southwest 221 254 2,500 2,040 Climbing Houston Center
11:34PM 29.9339 -95.4022 280° West 227 261 3,900 2,520 Climbing Houston Center
11:35PM 30.2946 -95.5167 333° Northwest  Level FlightAware Approximate
11:35PM 30.0067 -95.4208 348° North 291 335 6,700  Level Houston Center
11:36PM 30.3988 -95.5771 334° Northwest  Level FlightAware Approximate
11:36PM 30.0867 -95.4156 North 290 334 9,700  Level Houston Center
11:37PM 30.5039 -95.6353 337° Northwest  Level FlightAware Approximate
11:37PM 30.1672 -95.4264 353° North 302 348 12,300  Level Houston Center
11:38PM 30.2528 -95.4817 331° Northwest 348 400 14,200 1,980 Climbing Houston Center
11:39PM 30.3419 -95.5344 333° Northwest 359 413 16,400 2,280 Climbing Houston Center
11:40PM 30.4364 -95.5906 333° Northwest 376 433 18,900 2,340 Climbing Houston Center
11:41PM 30.5314 -95.6494 332° Northwest 384 442 21,200 2,160 Climbing Houston Center
11:42PM 30.6531 -95.7147 335° Northwest 402 463 23,300 1,800 Climbing Houston Center
11:43PM 30.7456 -95.7656 335° Northwest 418 481 24,900 1,800 Climbing Houston Center
11:44PM 30.8767 -95.8356 335° Northwest 428 493 27,100 1,500 Climbing Houston Center
11:45PM 30.9878 -95.8942 336° Northwest 435 501 28,000 840 Climbing Houston Center
11:46PM 31.0989 -95.9542 335° Northwest 438 504 28,900 480 Climbing Houston Center
11:47PM 31.2164 -96.0039 340° North 446 513 29,000 480 Climbing Houston Center
11:48PM 31.3361 -96.0497 342° North 448 516 29,900 1,320 Climbing Houston Center
11:49PM 31.4600 -96.0972 342° North 452 520 31,700 1,620 Climbing Houston Center
11:50PM 31.5783 -96.1431 342° North 447 514 33,300 1,440 Climbing Houston Center
11:51PM 31.6958 -96.1900 341° North 458 527 34,700 1,320 Climbing Fort Worth Center
11:52PM 31.8236 -96.2372 343° North 445 512 36,000 900 Climbing Fort Worth Center
11:53PM 31.9222 -96.2825 339° North 433 498 36,500 900 Climbing Fort Worth Center
11:54PM 32.0375 -96.3278 342° North 433 498 37,800 720 Climbing Fort Worth Center
11:55PM 32.1528 -96.3706 343° North 433 498 38,000 60 Climbing Fort Worth Center
11:56PM 32.2514 -96.4553 324° Northwest 427 491 38,000  Level Fort Worth Center
11:57PM 32.3419 -96.5578 316° Northwest 437 503 38,000  Level Fort Worth Center
11:58PM 32.4325 -96.6603 316° Northwest 442 509 38,000  Level Fort Worth Center
11:59PM 32.5228 -96.7628 316° Northwest 442 509 38,000  Level Fort Worth Center
12:00AM 32.6131 -96.8658 316° Northwest 447 514 38,000  Level Fort Worth Center
12:01AM 32.7011 -96.9667 316° Northwest 447 514 38,000  Level Fort Worth Center
12:02AM 32.7911 -97.0650 317° Northwest 442 509 38,000  Level Fort Worth Center
12:03AM 32.8917 -97.1808 316° Northwest 442 509 38,000  Level Fort Worth Center
12:04AM 32.9669 -97.2772 313° West 442 509 38,000  Level Fort Worth Center
12:05AM 33.0650 -97.4036 313° West 468 539 38,000  Level Fort Worth Center
12:06AM 33.1486 -97.5078 314° West 454 522 38,000  Level Fort Worth Center
12:07AM 33.2319 -97.6147 313° West 448 516 38,000  Level Fort Worth Center
12:08AM 33.3153 -97.7217 313° West 442 509 38,000  Level Fort Worth Center
12:09AM 33.4025 -97.8289 314° West 442 509 38,000  Level Fort Worth Center
12:10AM 33.4856 -97.9364 313° West 442 509 38,000  Level Fort Worth Center
12:11AM 33.5706 -98.0467 313° West 442 509 38,000  Level Fort Worth Center
12:12AM 33.6536 -98.1572 312° West 447 514 38,000  Level Fort Worth Center
12:13AM 33.7364 -98.2653 313° West 447 514 38,000  Level Fort Worth Center
12:14AM 33.8211 -98.3736 313° West 447 514 38,000  Level Fort Worth Center
12:15AM 33.9036 -98.4819 313° West 447 514 38,000  Level Fort Worth Center
12:16AM 33.9883 -98.5908 313° West 447 514 38,000  Level Fort Worth Center
12:17AM 34.0664 -98.7097 308° West 452 520 38,000  Level Fort Worth Center
12:18AM 34.1361 -98.8211 307° West 457 526 38,000  Level Fort Worth Center
12:19AM 34.2142 -98.9356 310° West 457 526 38,000  Level Fort Worth Center
12:20AM 34.2919 -99.0525 309° West 452 520 38,000  Level Fort Worth Center
12:21AM 34.3697 -99.1622 311° West 447 514 38,000  Level Fort Worth Center
12:22AM 34.4472 -99.2769 309° West 447 514 38,000  Level Fort Worth Center
12:23AM 34.5247 -99.3947 309° West 452 520 38,000  Level Fort Worth Center
12:24AM 34.6022 -99.5125 309° West 452 520 38,000  Level Fort Worth Center
12:25AM 34.6794 -99.6281 309° West 452 520 38,000  Level Fort Worth Center
12:27AM 34.8056 -99.8200 309° West 447 514 38,000  Level Albuquerque Center
12:28AM 34.8833 -99.9375 309° West 445 512 38,000  Level Albuquerque Center
12:29AM 34.9606 -100.0561 308° West 444 511 38,000  Level Albuquerque Center
12:30AM 35.0375 -100.1769 308° West 447 514 38,000  Level Albuquerque Center
12:31AM 35.1169 -100.2969 309° West 450 518 38,000  Level Albuquerque Center
12:32AM 35.1939 -100.4175 308° West 450 518 38,000  Level Albuquerque Center
12:33AM 35.2719 -100.5367 309° West 447 514 38,000  Level Albuquerque Center
12:34AM 35.3544 -100.6664 308° West 446 513 38,000  Level Albuquerque Center
12:35AM 35.4308 -100.7844 308° West 445 512 38,000  Level Albuquerque Center
12:36AM 35.5047 -100.9019 308° West 441 507 38,000  Level Albuquerque Center
12:37AM 35.5794 -101.0189 308° West 439 505 38,000  Level Albuquerque Center
12:38AM 35.6531 -101.1356 308° West 436 502 38,000  Level Albuquerque Center
12:39AM 35.7272 -101.2533 308° West 438 504 38,000  Level Albuquerque Center
12:40AM 35.8011 -101.3708 308° West 438 504 38,000  Level Albuquerque Center
12:41AM 35.8786 -101.4867 310° West 440 506 38,000  Level Albuquerque Center
12:42AM 35.9719 -101.6256 310° West 441 507 38,000  Level Albuquerque Center
12:43AM 36.0503 -101.7414 310° West 441 507 38,000  Level Albuquerque Center
12:44AM 36.1283 -101.8617 309° West 448 516 38,000  Level Albuquerque Center
12:45AM 36.2086 -101.9811 310° West 451 519 38,000  Level Albuquerque Center
12:46AM 36.2881 -102.1025 309° West 455 524 38,000  Level Albuquerque Center
12:47AM 36.3689 -102.2244 309° West 458 527 38,000  Level Albuquerque Center
12:48AM 36.4500 -102.3475 309° West 461 531 38,000  Level Albuquerque Center
12:49AM 36.5314 -102.4714 309° West 463 533 38,000  Level Albuquerque Center
12:50AM 36.6269 -102.6150 310° West 463 533 38,000  Level Albuquerque Center
12:51AM 36.7042 -102.7344 309° West 462 532 38,000  Level Albuquerque Center
12:52AM 36.7808 -102.8542 309° West 461 531 38,000  Level Albuquerque Center
12:53AM 36.8703 -102.9917 309° West 458 527 38,000  Level Albuquerque Center
12:54AM 36.9456 -103.1100 309° West 455 524 38,000  Level Albuquerque Center
12:55AM 37.0214 -103.2286 309° West 456 525 38,000  Level Albuquerque Center
12:56AM 37.1092 -103.3664 309° West 454 522 38,000  Level Albuquerque Center
12:57AM 37.1856 -103.4850 309° West 456 525 38,000  Level Albuquerque Center
12:58AM 37.2617 -103.6042 309° West 456 525 38,000  Level Albuquerque Center
12:59AM 37.3281 -103.6994 311° West 456 525 38,000  Level Denver Center
01:00AM 37.4214 -103.8342 311° West 457 526 38,000  Level Denver Center
01:01AM 37.5003 -103.9494 311° West 454 522 38,000  Level Denver Center
01:02AM 37.5919 -104.0831 311° West 466 536 38,000  Level Denver Center
01:03AM 37.6714 -104.1986 311° West 466 536 38,000  Level Denver Center
01:04AM 37.7633 -104.3328 311° West 455 524 38,000  Level Denver Center
01:05AM 37.8419 -104.4494 310° West 454 522 38,000  Level Denver Center
01:06AM 37.9203 -104.5647 311° West 452 520 38,000  Level Denver Center
01:07AM 38.0119 -104.6994 311° West 452 520 38,000  Level Denver Center
01:08AM 38.0883 -104.8161 310° West 449 517 38,000  Level Denver Center
01:09AM 38.1667 -104.9317 311° West 450 518 38,000  Level Denver Center
01:10AM 38.2564 -105.0669 310° West 447 514 38,000  Level Denver Center
01:11AM 38.3319 -105.1817 310° West 443 510 38,000  Level Denver Center
01:12AM 38.4072 -105.2936 311° West 445 512 38,000  Level Denver Center
01:13AM 38.5019 -105.4378 310° West 443 510 38,000  Level Denver Center
01:14AM 38.5806 -105.5581 310° West 441 507 38,000  Level Denver Center
01:15AM 38.6594 -105.6778 310° West 439 505 38,000  Level Denver Center
01:16AM 38.7378 -105.7975 310° West 437 503 38,000  Level Denver Center
01:17AM 38.8158 -105.9172 310° West 436 502 38,000  Level Denver Center
01:18AM 38.8914 -106.0364 309° West 431 496 38,000  Level Denver Center
01:19AM 38.9681 -106.1547 310° West 430 495 38,000  Level Denver Center
01:20AM 39.0403 -106.2678 309° West 424 488 38,000  Level Denver Center
01:21AM 39.1244 -106.3975 310° West 422 486 38,000  Level Denver Center
01:22AM 39.1961 -106.5092 310° West 422 486 38,000  Level Denver Center
01:23AM 39.2667 -106.6208 309° West 420 483 38,000  Level Denver Center
01:24AM 39.3517 -106.7544 309° West 428 493 38,000  Level Denver Center
01:25AM 39.4225 -106.8689 309° West 427 491 38,000  Level Denver Center
01:26AM 39.5031 -106.9994 309° West 420 483 38,000  Level Denver Center
01:27AM 39.5814 -107.1100 313° West 431 496 38,000  Level Denver Center
01:28AM 39.6531 -107.2242 309° West 427 491 38,000  Level Denver Center
01:29AM 39.7128 -107.3144 311° West 418 481 38,000  Level Denver Center
01:30AM 39.8092 -107.4642 310° West 420 483 38,000  Level Denver Center
01:31AM 39.8811 -107.5756 310° West 422 486 38,000  Level Denver Center
01:32AM 39.9631 -107.7042 310° West 416 479 38,000  Level Denver Center
01:34AM 40.0331 -107.8164 309° West 418 481 38,000  Level Denver Center
01:35AM 40.1150 -107.9444 310° West 414 476 38,000  Level Denver Center
01:36AM 40.1842 -108.0556 309° West 413 475 38,000  Level Denver Center
01:37AM 40.2564 -108.1686 310° West 420 483 38,000  Level Denver Center
01:38AM 40.3389 -108.3025 309° West 426 490 38,000  Level Denver Center
01:39AM 40.4097 -108.4156 309° West 423 487 38,000  Level Denver Center
01:40AM 40.4817 -108.5303 310° West 423 487 38,000  Level Denver Center
01:41AM 40.5639 -108.6631 309° West 421 484 38,000  Level Denver Center
01:41AM 40.6139 -108.7467 308° West 424 488 38,000  Level Salt Lake Center
01:42AM 40.6853 -108.8625 309° West 423 487 38,000  Level Salt Lake Center
01:43AM 40.7556 -108.9800 308° West 426 490 38,000  Level Salt Lake Center
01:44AM 40.8383 -109.1147 309° West 424 488 38,000  Level Salt Lake Center
01:45AM 40.9075 -109.2306 308° West 419 482 38,000  Level Salt Lake Center
01:46AM 40.9775 -109.3447 309° West 415 478 38,000  Level Salt Lake Center
01:47AM 41.0592 -109.4814 308° West 420 483 38,000  Level Salt Lake Center
01:48AM 41.1289 -109.5986 308° West 420 483 38,000  Level Salt Lake Center
01:49AM 41.1994 -109.7164 309° West 422 486 38,000  Level Salt Lake Center
01:50AM 41.2822 -109.8547 309° West 426 490 38,000  Level Salt Lake Center
01:51AM 41.3531 -109.9744 308° West 428 493 38,000  Level Salt Lake Center
01:52AM 41.4242 -110.0942 308° West 430 495 38,000  Level Salt Lake Center
01:53AM 41.5067 -110.2350 308° West 430 495 38,000  Level Salt Lake Center
01:55AM 41.5764 -110.3536 308° West 425 489 38,000  Level Salt Lake Center
01:56AM 41.6450 -110.4706 308° West 419 482 38,000  Level Salt Lake Center
01:57AM 41.7253 -110.6086 308° West 421 484 38,000  Level Salt Lake Center
01:58AM 41.7922 -110.7264 307° West 417 480 38,000  Level Salt Lake Center
01:59AM 41.8719 -110.8631 308° West 417 480 38,000  Level Salt Lake Center
02:00AM 41.9344 -110.9739 307° West 414 476 38,000  Level Salt Lake Center
02:01AM 42.0044 -111.0961 308° West 415 478 38,000  Level Salt Lake Center
02:02AM 42.0753 -111.2200 308° West 419 482 38,000  Level Salt Lake Center
02:03AM 42.1453 -111.3442 307° West 418 481 38,000  Level Salt Lake Center
02:04AM 42.2150 -111.4689 307° West 419 482 38,000  Level Salt Lake Center
02:05AM 42.2994 -111.6181 307° West 418 481 38,000  Level Salt Lake Center
02:06AM 42.3694 -111.7436 307° West 419 482 38,000  Level Salt Lake Center
02:07AM 42.4389 -111.8675 307° West 416 479 38,000  Level Salt Lake Center
02:08AM 42.5086 -111.9942 307° West 420 483 38,000  Level Salt Lake Center
02:09AM 42.5789 -112.1206 307° West 421 484 38,000  Level Salt Lake Center
02:10AM 42.6483 -112.2456 307° West 417 480 38,000  Level Salt Lake Center
02:11AM 42.7167 -112.3694 307° West 416 479 38,000  Level Salt Lake Center
02:12AM 42.7939 -112.5111 307° West 416 479 38,000  Level Salt Lake Center
02:13AM 42.8597 -112.6317 307° West 415 478 38,000  Level Salt Lake Center
02:14AM 42.9228 -112.7561 305° West 416 479 38,000  Level Salt Lake Center
02:15AM 42.9947 -112.9028 304° West 415 478 38,000  Level Salt Lake Center
02:16AM 43.0561 -113.0258 304° West 411 473 38,000  Level Salt Lake Center
02:17AM 43.1175 -113.1503 304° West 412 474 38,000  Level Salt Lake Center
02:18AM 43.1897 -113.2972 304° West 415 478 38,000  Level Salt Lake Center
02:19AM 43.2522 -113.4242 304° West 418 481 38,000  Level Salt Lake Center
02:20AM 43.3128 -113.5511 303° West 417 480 38,000  Level Salt Lake Center
02:21AM 43.3853 -113.6994 304° West 418 481 38,000  Level Salt Lake Center
02:22AM 43.4458 -113.8275 303° West 416 479 38,000  Level Salt Lake Center
02:23AM 43.5069 -113.9550 303° West 420 483 38,000  Level Salt Lake Center
02:24AM 43.5772 -114.1014 304° West 410 472 38,000  Level Salt Lake Center
02:25AM 43.6375 -114.2275 303° West 409 471 38,000  Level Salt Lake Center
02:26AM 43.6964 -114.3547 303° West 412 474 38,000  Level Salt Lake Center
02:27AM 43.7669 -114.5022 304° West 410 472 38,000  Level Salt Lake Center
02:28AM 43.8267 -114.6292 303° West 412 474 38,000  Level Salt Lake Center
02:29AM 43.8856 -114.7572 303° West 412 474 38,000  Level Salt Lake Center
02:30AM 43.9556 -114.9056 303° West 412 474 38,000  Level Salt Lake Center
02:31AM 44.0150 -115.0333 303° West 410 472 38,000  Level Salt Lake Center
02:32AM 44.0742 -115.1614 303° West 411 473 38,000  Level Salt Lake Center
02:33AM 44.1422 -115.3100 303° West 410 472 38,000  Level Salt Lake Center
02:34AM 44.2189 -115.4783 302° West 404 465 38,000  Level Salt Lake Center
02:35AM 44.2858 -115.6258 302° West 403 464 38,000  Level Salt Lake Center
02:36AM 44.3436 -115.7531 302° West 405 466 38,000  Level Salt Lake Center
02:37AM 44.4008 -115.8803 302° West 405 466 38,000  Level Salt Lake Center
02:38AM 44.4686 -116.0267 303° West 407 468 38,000  Level Salt Lake Center
02:39AM 44.5258 -116.1561 302° West 420 483 38,000  Level Salt Lake Center
02:41AM 44.5900 -116.3078 301° West 415 478 38,000  Level Salt Lake Center
02:42AM 44.6456 -116.4350 302° West 406 467 38,000  Level Salt Lake Center
02:43AM 44.7111 -116.5836 302° West 402 463 38,000  Level Salt Lake Center
02:44AM 44.7669 -116.7133 301° West 404 465 38,000  Level Salt Lake Center
02:45AM 44.8233 -116.8428 302° West 405 466 38,000  Level Seattle Center
02:46AM 44.8783 -116.9725 301° West 405 466 38,000  Level Seattle Center
02:47AM 44.9439 -117.1219 302° West 402 463 38,000  Level Seattle Center
02:48AM 44.9983 -117.2514 301° West 400 460 38,000  Level Seattle Center
02:49AM 45.0542 -117.3811 301° West 402 463 38,000  Level Seattle Center
02:50AM 45.1181 -117.5325 301° West 401 461 38,000  Level Seattle Center
02:51AM 45.1708 -117.6569 301° West 403 464 38,000  Level Seattle Center
02:52AM 45.2272 -117.7931 301° West 403 464 38,000  Level Seattle Center
02:53AM 45.2850 -117.9286 301° West 403 464 38,000  Level Seattle Center
02:54AM 45.3406 -118.0642 300° West 401 461 38,000  Level Seattle Center
02:55AM 45.3967 -118.1994 301° West 399 459 38,000  Level Seattle Center
02:56AM 45.4589 -118.3286 305° West 399 459 38,000  Level Seattle Center
02:57AM 45.5397 -118.4475 314° West 414 476 38,000  Level Seattle Center
02:58AM 45.6178 -118.5653 313° West 412 474 38,000  Level Seattle Center
02:59AM 45.6956 -118.6836 313° West 410 472 38,000  Level Seattle Center
03:00AM 45.7897 -118.8242 314° West 410 472 38,000  Level Seattle Center
03:01AM 45.8664 -118.9425 313° West 409 471 38,000  Level Seattle Center
03:02AM 45.9436 -119.0617 313° West 409 471 38,000  Level Seattle Center
03:03AM 46.0219 -119.1825 313° West 413 475 38,000  Level Seattle Center
03:04AM 46.1008 -119.3031 313° West 415 478 38,000  Level Seattle Center
03:05AM 46.1792 -119.4242 313° West 416 479 38,000  Level Seattle Center
03:06AM 46.2564 -119.5469 312° West 417 480 38,000  Level Seattle Center
03:07AM 46.3353 -119.6692 313° West 417 480 38,000  Level Seattle Center
03:08AM 46.4117 -119.7892 313° West 413 475 38,000  Level Seattle Center
03:09AM 46.4900 -119.9139 312° West 419 482 38,000  Level Seattle Center
03:11AM 46.6259 -120.1239 313° West  Level FlightAware Approximate
03:12AM 46.7236 -120.2881 313° West 422 486 38,000  Level Seattle Center
03:13AM 46.8011 -120.4142 312° West 421 484 38,000  Level Seattle Center
03:14AM 46.8781 -120.5364 313° West 413 475 38,000  Level Seattle Center
03:15AM 46.9533 -120.6597 312° West 409 471 38,000  Level Seattle Center
03:16AM 47.0808 -120.8439 316° Northwest 416 479 38,000  Level Seattle Center
03:17AM 47.1814 -120.9400 327° Northwest 431 496 38,000  Level Seattle Center
03:18AM 47.2792 -121.0383 326° Northwest 430 495 38,000  Level Seattle Center
03:19AM 47.3969 -121.1553 326° Northwest 430 495 38,000  Level Seattle Center
03:20AM 47.4975 -121.2531 327° Northwest 435 501 38,000 -60 Level Seattle Center
03:21AM 47.5969 -121.3547 325° Northwest 440 506 37,900 -600 Descending Seattle Center
03:22AM 47.6967 -121.4544 326° Northwest 441 507 36,900 -1,440 Descending Seattle Center
03:23AM 47.7947 -121.5539 326° Northwest 436 502 35,000 -2,580 Descending Seattle Center
03:24AM 47.8933 -121.6553 325° Northwest 436 502 31,800 -2,940 Descending Seattle Center
03:25AM 47.9936 -121.7569 326° Northwest 441 507 29,200 -2,460 Descending Seattle Center
03:26AM 48.0894 -121.8558 325° Northwest 430 495 26,900 -2,280 Descending Seattle Center
03:27AM 48.1806 -121.9519 325° Northwest 413 475 24,700 -2,160 Descending Seattle Center
03:28AM 48.2708 -122.0450 326° Northwest 402 463 22,600 -2,280 Descending Seattle Center
03:29AM 48.3736 -122.1525 325° Northwest 384 442 20,200 -2,160 Descending Seattle Center
03:30AM 48.4572 -122.2397 325° Northwest 374 430 18,300 -1,980 Descending Seattle Center
03:31AM 48.5392 -122.3267 325° Northwest 368 423 16,300 -2,280 Descending Seattle Center
03:32AM 48.6244 -122.4158 325° Northwest 373 429 13,800 -2,160 Descending Seattle Center
03:33AM 48.7069 -122.5053 324° Northwest 372 428 12,000 -960 Descending Seattle Center
03:34AM 48.7694 -122.6061 313° West 339 390 11,900 -60 Descending Seattle Center
03:35AM 48.8281 -122.7125 310° West 331 381 11,900  Level Seattle Center
03:36AM 48.8667 -122.8167 299° West 330 380 12,000  Climbing Vancouver Center
03:37AM 48.9333 -122.9167 315° West 330 380 11,900 -900 Descending Vancouver Center
03:38AM 48.9833 -123.0167 307° West 320 368 10,300 -1,260 Descending Vancouver Center
03:39AM 49.0333 -123.1167 307° West 300 345 9,400 -1,200 Descending Vancouver Center
03:40AM 49.0667 -123.2167 297° West 280 322 8,000 -1,500 Descending Vancouver Center
03:41AM 49.0833 -123.3333 282° West 280 322 6,500 -1,440 Descending Vancouver Center
03:42AM 49.1000 -123.4500 282° West 270 311 5,200 -1,200 Descending Vancouver Center
03:43AM 49.1500 -123.5167 319° Northwest 260 299 4,100 -1,200 Descending Vancouver Center
03:44AM 49.2000 -123.4333 47° Northeast 210 242 2,800 -1,140 Descending Vancouver Center
03:45AM 49.1833 -123.3833 117° Southeast 170 196 1,900 -900 Descending Vancouver Center